European Seaway — MPDG3 — position and weather

sailwx.info

Track history (hours):
 
Tides and Currents Weather Stations Pressure Air Temp Water Temp Dewpoint Dewpoint Depression Visibility Wind Speed Wind Dir Waves Ship Positions

European Seaway

Operator: P & O Ferries

Last reported at 2016-May-28 11:33 UTC. Time now 2016-May-28 11:54 UTC.
Position N 51°07' E 001°20'.

Length 175 m; draft 6 m.

Type: Passenger vessel. MMSI: 232001040.

Date/timePositionNaut miles runAvg speedWind from/ knotsBaromVisibWave heightAir tempDewpointWater temp
2016-May-28 11:33N 51°07' E 001°20'1818.5
2016-May-28 10:33N 50°58' E 001°46'4 3.7
2016-May-28 09:32N 50°58' E 001°52'0 0.2
2016-May-28 08:29N 50°58' E 001°52'0 0.0
2016-May-28 07:29N 50°58' E 001°52'0 0.0
2016-May-28 06:32N 50°58' E 001°52'0 0.0
2016-May-28 05:32N 50°58' E 001°52'0 0.0
2016-May-28 04:32N 50°58' E 001°52'0 0.0
2016-May-28 03:32N 50°58' E 001°52'0 0.0
2016-May-28 02:32N 50°58' E 001°52'0 0.0
2016-May-28 01:23N 50°58' E 001°52'0 0.0
2016-May-28 00:29N 50°58' E 001°52'0 0.0
2016-May-27 23:32N 50°58' E 001°52'0 0.0
2016-May-27 22:32N 50°58' E 001°52'0 0.0
2016-May-27 21:29N 50°58' E 001°52'0 0.0
2016-May-27 20:30N 50°58' E 001°52'1 0.7
2016-May-27 19:33N 50°58' E 001°51'8 8.0
2016-May-27 18:34N 50°59' E 001°38'1414.2
2016-May-27 17:33N 51°07' E 001°20'0 0.4
2016-May-27 16:33N 51°07' E 001°21'1414.3
2016-May-27 15:34N 51°00' E 001°40'7 7.5
2016-May-27 14:34N 50°58' E 001°52'4 3.7
2016-May-27 13:33N 50°58' E 001°46'1717.3
2016-May-27 12:33N 51°07' E 001°22'1 1.5
2016-May-27 11:33N 51°07' E 001°20'1413.7
2016-May-27 10:33N 51°01' E 001°39'8 7.9
2016-May-27 09:30N 50°58' E 001°52'0 0.2
2016-May-27 08:29N 50°58' E 001°52'0 0.0
2016-May-27 07:29N 50°58' E 001°52'0 0.0
2016-May-27 06:32N 50°58' E 001°52'0 0.0
2016-May-27 05:32N 50°58' E 001°52'0 0.0
2016-May-27 04:32N 50°58' E 001°52'0 0.0
2016-May-27 03:32N 50°58' E 001°52'0 0.0
2016-May-27 02:32N 50°58' E 001°52'0 0.0
2016-May-27 01:29N 50°58' E 001°52'0 0.0
2016-May-27 00:32N 50°58' E 001°52'0 0.0
2016-May-26 23:32N 50°58' E 001°52'0 0.0
2016-May-26 22:32N 50°58' E 001°52'0 0.0
2016-May-26 21:32N 50°58' E 001°52'0 0.0
2016-May-26 20:32N 50°58' E 001°52'0 0.2
2016-May-26 19:33N 50°58' E 001°52'1110.9
2016-May-26 18:34N 51°00' E 001°35'1211.7
2016-May-26 17:33N 51°07' E 001°20'1 0.7
2016-May-26 16:33N 51°07' E 001°21'1817.7
2016-May-26 15:33N 50°58' E 001°45'4 4.1
2016-May-26 14:33N 50°58' E 001°52'6 5.7
2016-May-26 13:33N 50°58' E 001°43'1717.0
2016-May-26 12:33N 51°07' E 001°20'0 0.1
2016-May-26 11:33N 51°07' E 001°20'1514.7
2016-May-26 10:33N 50°60' E 001°40'7 7.0
2016-May-26 09:30N 50°58' E 001°52'0 0.2
2016-May-26 08:25N 50°58' E 001°52'0 0.0
2016-May-26 07:31N 50°58' E 001°52'0 0.0
2016-May-26 06:31N 50°58' E 001°52'0 0.0
2016-May-26 05:31N 50°58' E 001°52'0 0.0
2016-May-26 04:31N 50°58' E 001°52'0 0.0
2016-May-26 03:31N 50°58' E 001°52'0 0.0
2016-May-26 02:25N 50°58' E 001°52'0 0.0
2016-May-26 01:31N 50°58' E 001°52'0 0.0
2016-May-26 00:28N 50°58' E 001°52'0 0.0
2016-May-25 23:31N 50°58' E 001°52'0 0.0
2016-May-25 22:31N 50°58' E 001°52'0 0.0
2016-May-25 21:31N 50°58' E 001°52'0 0.0
2016-May-25 20:31N 50°58' E 001°52'0 0.3
2016-May-25 19:33N 50°58' E 001°52'1211.7
2016-May-25 18:34N 50°60' E 001°33'1111.1
2016-May-25 17:32N 51°07' E 001°20'0 0.1
2016-May-25 16:33N 51°07' E 001°20'1716.8
2016-May-25 15:34N 50°59' E 001°43'6 5.5
2016-May-25 14:33N 50°58' E 001°52'1110.8
2016-May-25 13:33N 50°60' E 001°35'1212.0
2016-May-25 12:33N 51°07' E 001°20'0 0.1
2016-May-25 11:31N 51°07' E 001°20'1515.6
2016-May-25 10:34N 50°60' E 001°41'7 7.0
2016-May-25 09:33N 50°58' E 001°52'0 0.2
2016-May-25 08:33N 50°58' E 001°52'0 0.0
2016-May-25 07:33N 50°58' E 001°52'0 0.0
2016-May-25 06:33N 50°58' E 001°52'0 0.0
2016-May-25 05:33N 50°58' E 001°52'0 0.0
2016-May-25 04:33N 50°58' E 001°52'0 0.0
2016-May-25 03:33N 50°58' E 001°52'0 0.0
2016-May-25 02:33N 50°58' E 001°52'0 0.0
2016-May-25 01:33N 50°58' E 001°52'0 0.0
2016-May-25 00:33N 50°58' E 001°52'0 0.0
2016-May-24 23:33N 50°58' E 001°52'0 0.0
2016-May-24 22:33N 50°58' E 001°52'0 0.0
2016-May-24 21:33N 50°58' E 001°52'0 0.0
2016-May-24 20:33N 50°58' E 001°52'1 0.6
2016-May-24 19:33N 50°58' E 001°51'1414.3
2016-May-24 18:33N 51°02' E 001°29'8 7.6
2016-May-24 17:33N 51°07' E 001°20'0 0.3
2016-May-24 16:33N 51°07' E 001°20'1717.1
2016-May-24 15:33N 50°59' E 001°44'5 5.0
2016-May-24 14:33N 50°58' E 001°52'6 6.4
2016-May-24 13:34N 50°58' E 001°42'1616.3
2016-May-24 12:33N 51°07' E 001°20'0 0.0
2016-May-24 11:32N 51°07' E 001°20'1515.1
2016-May-24 10:34N 51°00' E 001°40'7 7.4
2016-May-24 09:34N 50°58' E 001°52'0 0.3
2016-May-24 08:33N 50°58' E 001°52'0 0.0
2016-May-24 07:33N 50°58' E 001°52'0 0.0
2016-May-24 06:33N 50°58' E 001°52'0 0.0
2016-May-24 05:33N 50°58' E 001°52'0 0.0
2016-May-24 04:33N 50°58' E 001°52'0 0.0
2016-May-24 03:33N 50°58' E 001°52'0 0.0
2016-May-24 02:34N 50°58' E 001°52'0 0.0
2016-May-24 01:33N 50°58' E 001°52'0 0.0
2016-May-24 00:33N 50°58' E 001°52'0 0.0
2016-May-23 23:34N 50°58' E 001°52'0 0.0
2016-May-23 22:33N 50°58' E 001°52'0 0.0
2016-May-23 21:33N 50°58' E 001°52'0 0.0
2016-May-23 20:33N 50°58' E 001°52'0 0.0
2016-May-23 19:33N 50°58' E 001°52'0 0.0
2016-May-23 18:33N 50°58' E 001°52'0 0.0
2016-May-23 17:34N 50°58' E 001°52'0 0.0
2016-May-23 16:33N 50°58' E 001°52'0 0.0
2016-May-23 15:33N 50°58' E 001°52'0 0.2
2016-May-23 14:33N 50°58' E 001°52'5 4.7
2016-May-23 13:33N 50°58' E 001°44'1716.8
2016-May-23 12:33N 51°07' E 001°21'1 0.9
2016-May-23 11:33N 51°07' E 001°20'1615.6
2016-May-23 10:33N 50°60' E 001°42'7 6.5
2016-May-23 09:33N 50°58' E 001°52'0 0.3
2016-May-23 08:33N 50°58' E 001°52'0 0.0
2016-May-23 07:33N 50°58' E 001°52'0 0.0
2016-May-23 06:33N 50°58' E 001°52'0 0.0
2016-May-23 05:33N 50°58' E 001°52'0 0.0
2016-May-23 04:33N 50°58' E 001°52'0 0.0
2016-May-23 03:33N 50°58' E 001°52'0 0.0
2016-May-23 02:34N 50°58' E 001°52'0 0.0
2016-May-23 01:33N 50°58' E 001°52'0 0.0
2016-May-23 00:33N 50°58' E 001°52'0 0.0
2016-May-22 23:33N 50°58' E 001°52'0 0.0
2016-May-22 22:33N 50°58' E 001°52'0 0.0
2016-May-22 21:33N 50°58' E 001°52'0 0.0
2016-May-22 20:33N 50°58' E 001°52'0 0.0
2016-May-22 19:33N 50°58' E 001°52'0 0.1
2016-May-22 18:33N 50°58' E 001°52'1313.4
2016-May-22 17:33N 51°03' E 001°32'9 8.7
2016-May-22 16:34N 51°07' E 001°20'1616.3
2016-May-22 15:33N 50°59' E 001°43'6 5.8
2016-May-22 14:33N 50°58' E 001°52'0 0.3
2016-May-22 13:33N 50°58' E 001°52'0 0.0
2016-May-22 12:33N 50°58' E 001°52'0 0.0
2016-May-22 11:33N 50°58' E 001°52'0 0.0
2016-May-22 10:33N 50°58' E 001°52'0 0.0
2016-May-22 09:33N 50°58' E 001°52'0 0.0
2016-May-22 08:33N 50°58' E 001°52'0 0.0
2016-May-22 07:33N 50°58' E 001°52'0 0.0
2016-May-22 06:33N 50°58' E 001°52'0 0.0
2016-May-22 05:33N 50°58' E 001°52'0 0.0
2016-May-22 04:33N 50°58' E 001°52'0 0.0
2016-May-22 03:33N 50°58' E 001°52'0 0.0
2016-May-22 02:33N 50°58' E 001°52'0 0.0
2016-May-22 01:33N 50°58' E 001°52'0 0.0
2016-May-22 00:33N 50°58' E 001°52'0 0.0
2016-May-21 23:33N 50°58' E 001°52'0 0.0
2016-May-21 22:33N 50°58' E 001°52'0 0.0
2016-May-21 21:34N 50°58' E 001°52'0 0.0
2016-May-21 20:33N 50°58' E 001°52'0 0.0
2016-May-21 19:33N 50°58' E 001°52'0 0.0
2016-May-21 18:33N 50°58' E 001°52'0 0.0
2016-May-21 17:33N 50°58' E 001°52'0 0.0
2016-May-21 16:33N 50°58' E 001°52'0 0.3
2016-May-21 15:33N 50°58' E 001°52'0 0.0
2016-May-21 14:33N 50°58' E 001°52'1 1.0
2016-May-21 13:34N 50°58' E 001°50'1818.4
2016-May-21 12:34N 51°06' E 001°24'3 2.6
2016-May-21 11:33N 51°07' E 001°20'1414.5
2016-May-21 10:33N 51°00' E 001°40'8 7.6
2016-May-21 09:33N 50°58' E 001°52'0 0.3
2016-May-21 08:33N 50°58' E 001°52'0 0.0
2016-May-21 07:33N 50°58' E 001°52'0 0.0
2016-May-21 06:33N 50°58' E 001°52'0 0.0
2016-May-21 05:33N 50°58' E 001°52'0 0.0
2016-May-21 04:33N 50°58' E 001°52'0 0.0
2016-May-21 03:33N 50°58' E 001°52'0 0.0
2016-May-21 02:33N 50°58' E 001°52'0 0.0
2016-May-21 01:33N 50°58' E 001°52'0 0.0
2016-May-21 00:33N 50°58' E 001°52'0 0.0
2016-May-20 23:33N 50°58' E 001°52'0 0.0
2016-May-20 22:33N 50°58' E 001°52'0 0.0
2016-May-20 21:33N 50°58' E 001°52'0 0.0
2016-May-20 20:34N 50°58' E 001°52'1 0.6
2016-May-20 19:33N 50°58' E 001°51'5 5.3
2016-May-20 18:34N 50°58' E 001°43'1716.8
2016-May-20 17:33N 51°07' E 001°20'0 0.2
2016-May-20 16:33N 51°07' E 001°20'1716.9
2016-May-20 15:33N 50°59' E 001°43'5 5.4
2016-May-20 14:33N 50°58' E 001°52'9 8.7
2016-May-20 13:34N 50°59' E 001°38'13 6.6
2016-May-20 11:32N 51°07' E 001°22'1616.0
2016-May-20 10:34N 50°59' E 001°43'6 5.8
2016-May-20 09:33N 50°58' E 001°52'0 0.2
2016-May-20 08:33N 50°58' E 001°52'0 0.0
2016-May-20 07:33N 50°58' E 001°52'0 0.0
2016-May-20 06:33N 50°58' E 001°52'0 0.0
2016-May-20 05:34N 50°58' E 001°52'0 0.0
2016-May-20 04:33N 50°58' E 001°52'0 0.0
2016-May-20 03:33N 50°58' E 001°52'0 0.0
2016-May-20 02:34N 50°58' E 001°52'0 0.0
2016-May-20 01:33N 50°58' E 001°52'0 0.0
2016-May-20 00:33N 50°58' E 001°52'0 0.0
2016-May-19 23:33N 50°58' E 001°52'0 0.0
2016-May-19 22:33N 50°58' E 001°52'0 0.0
2016-May-19 21:33N 50°58' E 001°52'0 0.0
2016-May-19 20:33N 50°58' E 001°52'0 0.1
2016-May-19 19:33N 50°58' E 001°52'7 7.3
2016-May-19 18:34N 50°59' E 001°40'15 7.6
2016-May-19 16:32N 51°07' E 001°20'1313.3
2016-May-19 15:34N 51°01' E 001°38'9 9.0
2016-May-19 14:33N 50°58' E 001°52'0 0.2
2016-May-19 13:33N 50°58' E 001°52'0 0.0
2016-May-19 12:34N 50°58' E 001°52'0 0.0
2016-May-19 11:33N 50°58' E 001°52'0 0.0
2016-May-19 10:33N 50°58' E 001°52'0 0.0
2016-May-19 09:33N 50°58' E 001°52'0 0.0
2016-May-19 08:33N 50°58' E 001°52'0 0.0
2016-May-19 07:33N 50°58' E 001°52'0 0.0
2016-May-19 06:33N 50°58' E 001°52'0 0.0
2016-May-19 05:33N 50°58' E 001°52'0 0.0
2016-May-19 04:33N 50°58' E 001°52'0 0.0
2016-May-19 03:33N 50°58' E 001°52'0 0.0
2016-May-19 02:33N 50°58' E 001°52'0 0.0
2016-May-19 01:33N 50°58' E 001°52'0 0.0
2016-May-19 00:34N 50°58' E 001°52'0 0.0
2016-May-18 23:34N 50°58' E 001°52'0 0.0
2016-May-18 22:33N 50°58' E 001°52'0 0.0
2016-May-18 21:33N 50°58' E 001°52'0 0.0
2016-May-18 20:33N 50°58' E 001°52'0 0.0
2016-May-18 19:33N 50°58' E 001°52'5 5.4
2016-May-18 18:33N 50°58' E 001°43'1717.2
2016-May-18 17:34N 51°07' E 001°20'0 0.2
2016-May-18 16:26N 51°07' E 001°20'1415.8
2016-May-18 15:33N 51°00' E 001°39'8 8.3
2016-May-18 14:33N 50°58' E 001°52'0 0.0
2016-May-18 13:27N 50°58' E 001°52'0 0.2
2016-May-18 12:33N 50°58' E 001°52'  
Track history (hours):
 
Tides and Currents Weather Stations Pressure Air Temp Water Temp Dewpoint Dewpoint Depression Visibility Wind Speed Wind Dir Waves Ship Positions

European Seaway

Operator: P & O Ferries

Last reported at 2016-May-28 11:33 UTC. Time now 2016-May-28 11:54 UTC.
Position N 51°07' E 001°20'.

Length 175 m; draft 6 m.

Type: Passenger vessel. MMSI: 232001040.

Date/timePositionNaut miles runAvg speedWind from/ knotsBaromVisibWave heightAir tempDewpointWater temp
2016-May-28 11:33N 51°07' E 001°20'1818.5
2016-May-28 10:33N 50°58' E 001°46'4 3.7
2016-May-28 09:32N 50°58' E 001°52'0 0.2
2016-May-28 08:29N 50°58' E 001°52'0 0.0
2016-May-28 07:29N 50°58' E 001°52'0 0.0
2016-May-28 06:32N 50°58' E 001°52'0 0.0
2016-May-28 05:32N 50°58' E 001°52'0 0.0
2016-May-28 04:32N 50°58' E 001°52'0 0.0
2016-May-28 03:32N 50°58' E 001°52'0 0.0
2016-May-28 02:32N 50°58' E 001°52'0 0.0
2016-May-28 01:23N 50°58' E 001°52'0 0.0
2016-May-28 00:29N 50°58' E 001°52'0 0.0
2016-May-27 23:32N 50°58' E 001°52'0 0.0
2016-May-27 22:32N 50°58' E 001°52'0 0.0
2016-May-27 21:29N 50°58' E 001°52'0 0.0
2016-May-27 20:30N 50°58' E 001°52'1 0.7
2016-May-27 19:33N 50°58' E 001°51'8 8.0
2016-May-27 18:34N 50°59' E 001°38'1414.2
2016-May-27 17:33N 51°07' E 001°20'0 0.4
2016-May-27 16:33N 51°07' E 001°21'1414.3
2016-May-27 15:34N 51°00' E 001°40'7 7.5
2016-May-27 14:34N 50°58' E 001°52'4 3.7
2016-May-27 13:33N 50°58' E 001°46'1717.3
2016-May-27 12:33N 51°07' E 001°22'1 1.5
2016-May-27 11:33N 51°07' E 001°20'1413.7
2016-May-27 10:33N 51°01' E 001°39'8 7.9
2016-May-27 09:30N 50°58' E 001°52'0 0.2
2016-May-27 08:29N 50°58' E 001°52'0 0.0
2016-May-27 07:29N 50°58' E 001°52'0 0.0
2016-May-27 06:32N 50°58' E 001°52'0 0.0
2016-May-27 05:32N 50°58' E 001°52'0 0.0
2016-May-27 04:32N 50°58' E 001°52'0 0.0
2016-May-27 03:32N 50°58' E 001°52'0 0.0
2016-May-27 02:32N 50°58' E 001°52'0 0.0
2016-May-27 01:29N 50°58' E 001°52'0 0.0
2016-May-27 00:32N 50°58' E 001°52'0 0.0
2016-May-26 23:32N 50°58' E 001°52'0 0.0
2016-May-26 22:32N 50°58' E 001°52'0 0.0
2016-May-26 21:32N 50°58' E 001°52'0 0.0
2016-May-26 20:32N 50°58' E 001°52'0 0.2
2016-May-26 19:33N 50°58' E 001°52'1110.9
2016-May-26 18:34N 51°00' E 001°35'1211.7
2016-May-26 17:33N 51°07' E 001°20'1 0.7
2016-May-26 16:33N 51°07' E 001°21'1817.7
2016-May-26 15:33N 50°58' E 001°45'4 4.1
2016-May-26 14:33N 50°58' E 001°52'6 5.7
2016-May-26 13:33N 50°58' E 001°43'1717.0
2016-May-26 12:33N 51°07' E 001°20'0 0.1
2016-May-26 11:33N 51°07' E 001°20'1514.7
2016-May-26 10:33N 50°60' E 001°40'7 7.0
2016-May-26 09:30N 50°58' E 001°52'0 0.2
2016-May-26 08:25N 50°58' E 001°52'0 0.0
2016-May-26 07:31N 50°58' E 001°52'0 0.0
2016-May-26 06:31N 50°58' E 001°52'0 0.0
2016-May-26 05:31N 50°58' E 001°52'0 0.0
2016-May-26 04:31N 50°58' E 001°52'0 0.0
2016-May-26 03:31N 50°58' E 001°52'0 0.0
2016-May-26 02:25N 50°58' E 001°52'0 0.0
2016-May-26 01:31N 50°58' E 001°52'0 0.0
2016-May-26 00:28N 50°58' E 001°52'0 0.0
2016-May-25 23:31N 50°58' E 001°52'0 0.0
2016-May-25 22:31N 50°58' E 001°52'0 0.0
2016-May-25 21:31N 50°58' E 001°52'0 0.0
2016-May-25 20:31N 50°58' E 001°52'0 0.3
2016-May-25 19:33N 50°58' E 001°52'1211.7
2016-May-25 18:34N 50°60' E 001°33'1111.1
2016-May-25 17:32N 51°07' E 001°20'0 0.1
2016-May-25 16:33N 51°07' E 001°20'1716.8
2016-May-25 15:34N 50°59' E 001°43'6 5.5
2016-May-25 14:33N 50°58' E 001°52'1110.8
2016-May-25 13:33N 50°60' E 001°35'1212.0
2016-May-25 12:33N 51°07' E 001°20'0 0.1
2016-May-25 11:31N 51°07' E 001°20'1515.6
2016-May-25 10:34N 50°60' E 001°41'7 7.0
2016-May-25 09:33N 50°58' E 001°52'0 0.2
2016-May-25 08:33N 50°58' E 001°52'0 0.0
2016-May-25 07:33N 50°58' E 001°52'0 0.0
2016-May-25 06:33N 50°58' E 001°52'0 0.0
2016-May-25 05:33N 50°58' E 001°52'0 0.0
2016-May-25 04:33N 50°58' E 001°52'0 0.0
2016-May-25 03:33N 50°58' E 001°52'0 0.0
2016-May-25 02:33N 50°58' E 001°52'0 0.0
2016-May-25 01:33N 50°58' E 001°52'0 0.0
2016-May-25 00:33N 50°58' E 001°52'0 0.0
2016-May-24 23:33N 50°58' E 001°52'0 0.0
2016-May-24 22:33N 50°58' E 001°52'0 0.0
2016-May-24 21:33N 50°58' E 001°52'0 0.0
2016-May-24 20:33N 50°58' E 001°52'1 0.6
2016-May-24 19:33N 50°58' E 001°51'1414.3
2016-May-24 18:33N 51°02' E 001°29'8 7.6
2016-May-24 17:33N 51°07' E 001°20'0 0.3
2016-May-24 16:33N 51°07' E 001°20'1717.1
2016-May-24 15:33N 50°59' E 001°44'5 5.0
2016-May-24 14:33N 50°58' E 001°52'6 6.4
2016-May-24 13:34N 50°58' E 001°42'1616.3
2016-May-24 12:33N 51°07' E 001°20'0 0.0
2016-May-24 11:32N 51°07' E 001°20'1515.1
2016-May-24 10:34N 51°00' E 001°40'7 7.4
2016-May-24 09:34N 50°58' E 001°52'0 0.3
2016-May-24 08:33N 50°58' E 001°52'0 0.0
2016-May-24 07:33N 50°58' E 001°52'0 0.0
2016-May-24 06:33N 50°58' E 001°52'0 0.0
2016-May-24 05:33N 50°58' E 001°52'0 0.0
2016-May-24 04:33N 50°58' E 001°52'0 0.0
2016-May-24 03:33N 50°58' E 001°52'0 0.0
2016-May-24 02:34N 50°58' E 001°52'0 0.0
2016-May-24 01:33N 50°58' E 001°52'0 0.0
2016-May-24 00:33N 50°58' E 001°52'0 0.0
2016-May-23 23:34N 50°58' E 001°52'0 0.0
2016-May-23 22:33N 50°58' E 001°52'0 0.0
2016-May-23 21:33N 50°58' E 001°52'0 0.0
2016-May-23 20:33N 50°58' E 001°52'0 0.0
2016-May-23 19:33N 50°58' E 001°52'0 0.0
2016-May-23 18:33N 50°58' E 001°52'0 0.0
2016-May-23 17:34N 50°58' E 001°52'0 0.0
2016-May-23 16:33N 50°58' E 001°52'0 0.0
2016-May-23 15:33N 50°58' E 001°52'0 0.2
2016-May-23 14:33N 50°58' E 001°52'5 4.7
2016-May-23 13:33N 50°58' E 001°44'1716.8
2016-May-23 12:33N 51°07' E 001°21'1 0.9
2016-May-23 11:33N 51°07' E 001°20'1615.6
2016-May-23 10:33N 50°60' E 001°42'7 6.5
2016-May-23 09:33N 50°58' E 001°52'0 0.3
2016-May-23 08:33N 50°58' E 001°52'0 0.0
2016-May-23 07:33N 50°58' E 001°52'0 0.0
2016-May-23 06:33N 50°58' E 001°52'0 0.0
2016-May-23 05:33N 50°58' E 001°52'0 0.0
2016-May-23 04:33N 50°58' E 001°52'0 0.0
2016-May-23 03:33N 50°58' E 001°52'0 0.0
2016-May-23 02:34N 50°58' E 001°52'0 0.0
2016-May-23 01:33N 50°58' E 001°52'0 0.0
2016-May-23 00:33N 50°58' E 001°52'0 0.0
2016-May-22 23:33N 50°58' E 001°52'0 0.0
2016-May-22 22:33N 50°58' E 001°52'0 0.0
2016-May-22 21:33N 50°58' E 001°52'0 0.0
2016-May-22 20:33N 50°58' E 001°52'0 0.0
2016-May-22 19:33N 50°58' E 001°52'0 0.1
2016-May-22 18:33N 50°58' E 001°52'1313.4
2016-May-22 17:33N 51°03' E 001°32'9 8.7
2016-May-22 16:34N 51°07' E 001°20'1616.3
2016-May-22 15:33N 50°59' E 001°43'6 5.8
2016-May-22 14:33N 50°58' E 001°52'0 0.3
2016-May-22 13:33N 50°58' E 001°52'0 0.0
2016-May-22 12:33N 50°58' E 001°52'0 0.0
2016-May-22 11:33N 50°58' E 001°52'0 0.0
2016-May-22 10:33N 50°58' E 001°52'0 0.0
2016-May-22 09:33N 50°58' E 001°52'0 0.0
2016-May-22 08:33N 50°58' E 001°52'0 0.0
2016-May-22 07:33N 50°58' E 001°52'0 0.0
2016-May-22 06:33N 50°58' E 001°52'0 0.0
2016-May-22 05:33N 50°58' E 001°52'0 0.0
2016-May-22 04:33N 50°58' E 001°52'0 0.0
2016-May-22 03:33N 50°58' E 001°52'0 0.0
2016-May-22 02:33N 50°58' E 001°52'0 0.0
2016-May-22 01:33N 50°58' E 001°52'0 0.0
2016-May-22 00:33N 50°58' E 001°52'0 0.0
2016-May-21 23:33N 50°58' E 001°52'0 0.0
2016-May-21 22:33N 50°58' E 001°52'0 0.0
2016-May-21 21:34N 50°58' E 001°52'0 0.0
2016-May-21 20:33N 50°58' E 001°52'0 0.0
2016-May-21 19:33N 50°58' E 001°52'0 0.0
2016-May-21 18:33N 50°58' E 001°52'0 0.0
2016-May-21 17:33N 50°58' E 001°52'0 0.0
2016-May-21 16:33N 50°58' E 001°52'0 0.3
2016-May-21 15:33N 50°58' E 001°52'0 0.0
2016-May-21 14:33N 50°58' E 001°52'1 1.0
2016-May-21 13:34N 50°58' E 001°50'1818.4
2016-May-21 12:34N 51°06' E 001°24'3 2.6
2016-May-21 11:33N 51°07' E 001°20'1414.5
2016-May-21 10:33N 51°00' E 001°40'8 7.6
2016-May-21 09:33N 50°58' E 001°52'0 0.3
2016-May-21 08:33N 50°58' E 001°52'0 0.0
2016-May-21 07:33N 50°58' E 001°52'0 0.0
2016-May-21 06:33N 50°58' E 001°52'0 0.0
2016-May-21 05:33N 50°58' E 001°52'0 0.0
2016-May-21 04:33N 50°58' E 001°52'0 0.0
2016-May-21 03:33N 50°58' E 001°52'0 0.0
2016-May-21 02:33N 50°58' E 001°52'0 0.0
2016-May-21 01:33N 50°58' E 001°52'0 0.0
2016-May-21 00:33N 50°58' E 001°52'0 0.0
2016-May-20 23:33N 50°58' E 001°52'0 0.0
2016-May-20 22:33N 50°58' E 001°52'0 0.0
2016-May-20 21:33N 50°58' E 001°52'0 0.0
2016-May-20 20:34N 50°58' E 001°52'1 0.6
2016-May-20 19:33N 50°58' E 001°51'5 5.3
2016-May-20 18:34N 50°58' E 001°43'1716.8
2016-May-20 17:33N 51°07' E 001°20'0 0.2
2016-May-20 16:33N 51°07' E 001°20'1716.9
2016-May-20 15:33N 50°59' E 001°43'5 5.4
2016-May-20 14:33N 50°58' E 001°52'9 8.7
2016-May-20 13:34N 50°59' E 001°38'13 6.6
2016-May-20 11:32N 51°07' E 001°22'1616.0
2016-May-20 10:34N 50°59' E 001°43'6 5.8
2016-May-20 09:33N 50°58' E 001°52'0 0.2
2016-May-20 08:33N 50°58' E 001°52'0 0.0
2016-May-20 07:33N 50°58' E 001°52'0 0.0
2016-May-20 06:33N 50°58' E 001°52'0 0.0
2016-May-20 05:34N 50°58' E 001°52'0 0.0
2016-May-20 04:33N 50°58' E 001°52'0 0.0
2016-May-20 03:33N 50°58' E 001°52'0 0.0
2016-May-20 02:34N 50°58' E 001°52'0 0.0
2016-May-20 01:33N 50°58' E 001°52'0 0.0
2016-May-20 00:33N 50°58' E 001°52'0 0.0
2016-May-19 23:33N 50°58' E 001°52'0 0.0
2016-May-19 22:33N 50°58' E 001°52'0 0.0
2016-May-19 21:33N 50°58' E 001°52'0 0.0
2016-May-19 20:33N 50°58' E 001°52'0 0.1
2016-May-19 19:33N 50°58' E 001°52'7 7.3
2016-May-19 18:34N 50°59' E 001°40'15 7.6
2016-May-19 16:32N 51°07' E 001°20'1313.3
2016-May-19 15:34N 51°01' E 001°38'9 9.0
2016-May-19 14:33N 50°58' E 001°52'0 0.2
2016-May-19 13:33N 50°58' E 001°52'0 0.0
2016-May-19 12:34N 50°58' E 001°52'0 0.0
2016-May-19 11:33N 50°58' E 001°52'0 0.0
2016-May-19 10:33N 50°58' E 001°52'0 0.0
2016-May-19 09:33N 50°58' E 001°52'0 0.0
2016-May-19 08:33N 50°58' E 001°52'0 0.0
2016-May-19 07:33N 50°58' E 001°52'0 0.0
2016-May-19 06:33N 50°58' E 001°52'0 0.0
2016-May-19 05:33N 50°58' E 001°52'0 0.0
2016-May-19 04:33N 50°58' E 001°52'0 0.0
2016-May-19 03:33N 50°58' E 001°52'0 0.0
2016-May-19 02:33N 50°58' E 001°52'0 0.0
2016-May-19 01:33N 50°58' E 001°52'0 0.0
2016-May-19 00:34N 50°58' E 001°52'0 0.0
2016-May-18 23:34N 50°58' E 001°52'0 0.0
2016-May-18 22:33N 50°58' E 001°52'0 0.0
2016-May-18 21:33N 50°58' E 001°52'0 0.0
2016-May-18 20:33N 50°58' E 001°52'0 0.0
2016-May-18 19:33N 50°58' E 001°52'5 5.4
2016-May-18 18:33N 50°58' E 001°43'1717.2
2016-May-18 17:34N 51°07' E 001°20'0 0.2
2016-May-18 16:26N 51°07' E 001°20'1415.8
2016-May-18 15:33N 51°00' E 001°39'8 8.3
2016-May-18 14:33N 50°58' E 001°52'0 0.0
2016-May-18 13:27N 50°58' E 001°52'0 0.2
2016-May-18 12:33N 50°58' E 001°52'  

Dump ship's entire track history